• Join FlightAware (Why Join?)
  • Login
  • US Flag 
07:46AM EDT


 

Airport Tracker/Info


-or-


 

Live Flight TrackerFlight Track Log ✈ RPA3228 ✈ 04-Sep-2013 ✈ KDCA - KBUF

Flight Track Log - Related Links

Times and Time Zones

All times are in EDT time to prevent confusion due to time zone crossing. See the RPA3228 flight status page for this flight to view local times or setup timezone preferences in your user account.

Time Position Orientation Groundspeed Altitude Reporting Facility
EDT Latitude Longitude Course Direction KTS MPH feet Rate Location/Type
10:29AM 38.9000 -77.0833 333° Northwest 196 226 2,300  Level Potomac TRACON
10:30AM 38.9500 -77.1333 322° Northwest 238 274 5,100 3,000 Climbing Potomac TRACON
10:31AM 39.1277 -77.1750 330° Northwest  Level FlightAware Approximate
10:31AM 38.9833 -77.2000 303° West 267 307 8,400  Level Potomac TRACON
10:32AM 39.2233 -77.2300 346° North  Level FlightAware Approximate
10:33AM 39.3208 -77.2819 337° Northwest  Level FlightAware Approximate
10:33AM 39.0581 -77.4094 295° West 292 336 14,100  Level Washington Center
10:34AM 39.4167 -77.3389 333° Northwest  Level FlightAware Approximate
10:34AM 39.1517 -77.4197 355° North 278 320 16,800  Level Washington Center
10:35AM 39.2517 -77.4247 358° North 311 358 17,900 1,740 Climbing Washington Center
10:36AM 39.3517 -77.4328 356° North 339 390 20,300 2,340 Climbing Washington Center
10:37AM 39.4558 -77.4408 357° North 357 411 22,600 1,380 Climbing Washington Center
10:40AM 39.6919 -77.4675 355° North 384 442 25,000 720 Climbing New York Center
10:41AM 39.7983 -77.5019 346° North 389 448 25,000 480 Level New York Center
10:42AM 39.9025 -77.5392 345° North 389 448 26,000 480 Climbing New York Center
10:43AM 40.0111 -77.5767 345° North 394 453 26,000  Level New York Center
10:45AM 40.2906 -77.6733 345° North 400 460 26,000  Level Cleveland Center
10:46AM 40.3831 -77.7075 344° North 394 453 26,000  Level Cleveland Center
10:47AM 40.4906 -77.7464 345° North 394 453 26,000  Level Cleveland Center
10:48AM 40.5978 -77.7856 344° North 394 453 26,000  Level Cleveland Center
10:49AM 40.7050 -77.8222 345° North 394 453 26,000  Level Cleveland Center
10:50AM 40.8144 -77.8642 344° North 399 459 26,000  Level Cleveland Center
10:51AM 40.9197 -77.9011 345° North 399 459 26,000  Level Cleveland Center
10:52AM 41.0394 -77.9431 345° North 404 465 26,000  Level Cleveland Center
10:53AM 41.1486 -77.9828 345° North 404 465 26,000  Level Cleveland Center
10:54AM 41.2539 -78.0200 345° North 404 465 26,000  Level Cleveland Center
10:55AM 41.3631 -78.0600 345° North 404 465 26,000  Level Cleveland Center
10:56AM 41.4703 -78.1000 344° North 404 465 26,000  Level Cleveland Center
10:57AM 41.5794 -78.1375 346° North 399 459 26,000 -60 Level Cleveland Center
10:58AM 41.6847 -78.1781 344° North 404 465 25,900 -1,080 Descending Cleveland Center
10:59AM 41.7897 -78.2158 345° North 399 459 23,900 -1,980 Descending Cleveland Center
11:00AM 41.8906 -78.2539 344° North 387 445 22,000 -1,920 Descending Cleveland Center
11:01AM 41.9872 -78.2925 343° North 373 429 20,100 -1,920 Descending Cleveland Center
11:02AM 42.0714 -78.3258 344° North 365 420 18,200 -1,800 Descending Cleveland Center
11:03AM 42.1614 -78.3561 346° North 355 409 16,500 -1,860 Descending Cleveland Center
11:04AM 42.2603 -78.3947 344° North 341 392 14,500 -1,680 Descending Cleveland Center
11:05AM 42.3378 -78.4203 346° North 328 377 13,200 -1,500 Descending Cleveland Center
11:06AM 42.4197 -78.4511 344° North 311 358 11,500 -1,680 Descending Cleveland Center
11:07AM 42.4975 -78.4825 343° North 305 351 9,900 -1,320 Descending Cleveland Center
11:08AM 42.5708 -78.5081 346° North 284 327 8,900 -1,500 Descending Cleveland Center
11:09AM 42.6419 -78.5283 348° North 270 311 7,000 -2,100 Descending Cleveland Center
11:10AM 42.7256 -78.5397 354° North 264 304 4,800 -1,500 Descending Cleveland Center
11:11AM 42.7928 -78.5631 346° North 254 292 4,000 -600 Descending Cleveland Center
11:12AM 42.8619 -78.5864 346° North 260 299 3,600 -900 Descending Cleveland Center
11:13AM 42.9228 -78.6128 342° North 260 299 2,300 -720 Descending Cleveland Center
11:14AM 42.9833 -78.6500 336° Northwest 167 192 2,100 -480 Descending Buffalo TRACON
11:15AM 42.9667 -78.6833 236° Southwest 113 130 1,300 -840 Descending Buffalo TRACON